Sachs Harbour Airport
CYSY : now visible

Airfield :











YOU CAN JOIN US ON...

 
LOGIN :

Register | Disclaimer

   EN    FR    IT 

 









Legend :    VFR   Marginal VFR   IFR   Intensive IFR   Very Intensive IFR
Visi :
Ceiling :
>= 8 km
>= 3000ft
5 to 8 km
1000 to 3000 ft
1500m to 5 km
500 to 1000 ft
800 to 1500m
200 to 500 ft
< 800m
< 200 ft
Symbols :   Thunderstorms  Fog  Heavy snow  Heavy precipitations  Wind > 20 kt






- Airport Elevation : 282 ft
- IATA code : YSY


CYSY - Sachs Harbour

CURRENT METAR :
  • 131600Z 15007KT 15SM FEW030 16/07 A2971 RMK SC2 SLP068 DENSITY ALT 800FT

EXPIRED METARs :
  • 131500Z 13007KT 15SM FEW030 16/07 A2972 RMK ST2 SLP072 DENSITY ALT 800FT
  • 131400Z 11007KT 15SM FEW030 15/06 A2973 RMK SC2 SLP076 DENSITY ALT 700FT
  • 131300Z 08006KT 15SM FEW030 12/08 A2975 RMK SC2 SLP080

TAF TAF CYSY
Valid from the 13 at 15:00 until the 13 at 23:00 UTC


131440Z 1315/1323 11008KT P6SM FEW030
BECMG 1316/1318 16012KT RMK NXT FCST BY 131900Z
CZEG FIR / North America



MET'MAP, your aeronautical weather chart ! - Copyright ORBIFLY December 2007 - Disclaimer

ORBIFLY MET'MAP TEAM :

Programming & Development : Alexandra Zaïnal
Original concept : Baudouin d'Aumeries
Technical & hardware support : Manuel Goepfert
Assistance : Marc-Olivier Méhu




SOURCES & CREDITS :

   NOAA       Earth
Advisory